Time;durP1;ratioP1;P1;durP2;ratioP2;P2;SDS_P1;SDS_P2;PMS_P1;PMS_P2;Temp;Humidity;BMP_temperature;BMP_pressure;BME280_temperature;BME280_humidity;BME280_pressure;Samples;Min_cycle;Max_cycle;Signal;HPM_P1;HPM_P2
2022/09/12 00:01:09;;;;;;;4.80;4.30;;;;;;;20.10;57.83;99730.73;116986;1187;22902;-68
2022/09/12 00:03:36;;;;;;;6.50;4.10;;;;;;;20.15;57.80;99727.86;117190;1184;22919;-60
2022/09/12 00:06:30;;;;;;;5.40;4.20;;;;;;;20.22;57.74;99727.08;117090;1187;22935;-73
2022/09/12 00:08:59;;;;;;;6.40;3.30;;;;;;;20.23;57.82;99726.50;117055;1187;23544;-61
2022/09/12 00:11:26;;;;;;;6.50;3.90;;;;;;;20.24;57.90;99724.30;117068;1189;21870;-71
2022/09/12 00:13:58;;;;;;;4.00;3.60;;;;;;;20.24;58.04;99721.29;117160;1186;23559;-76
2022/09/12 00:16:26;;;;;;;4.30;3.40;;;;;;;20.23;58.04;99720.43;117110;1187;22967;-61
2022/09/12 00:18:54;;;;;;;4.10;3.60;;;;;;;20.22;58.01;99720.32;117094;1185;21860;-61
2022/09/12 00:21:21;;;;;;;4.10;3.60;;;;;;;20.20;58.15;99718.44;117172;1187;22930;-61
2022/09/12 00:23:48;;;;;;;4.80;3.90;;;;;;;20.19;58.09;99721.05;116995;1185;21859;-73
2022/09/12 00:26:16;;;;;;;4.70;4.00;;;;;;;20.18;58.13;99721.47;117139;1185;23648;-72
2022/09/12 00:28:43;;;;;;;7.40;3.60;;;;;;;20.16;58.24;99719.43;117070;1183;21865;-61
2022/09/12 00:31:13;;;;;;;4.10;3.40;;;;;;;20.00;58.47;99714.91;117232;1189;21845;-73
2022/09/12 00:33:41;;;;;;;4.10;3.10;;;;;;;19.95;58.60;99706.48;117150;1186;21944;-72
2022/09/12 00:36:18;;;;;;;5.20;3.00;;;;;;;19.94;58.63;99703.39;117460;1187;22699;-72
2022/09/12 00:38:45;;;;;;;4.40;2.90;;;;;;;19.92;58.83;99700.41;117112;1187;23459;-61
2022/09/12 00:41:17;;;;;;;3.80;3.20;;;;;;;19.91;58.85;99703.38;117143;1186;21855;-61
2022/09/12 00:44:09;;;;;;;5.00;2.70;;;;;;;19.89;58.84;99706.34;117163;1187;21865;-61
2022/09/12 00:46:47;;;;;;;5.30;3.20;;;;;;;19.87;58.94;99709.25;117084;1187;22822;-62
2022/09/12 00:49:34;;;;;;;6.10;3.40;;;;;;;19.86;59.01;99710.39;117095;1188;21921;-71
2022/09/12 00:52:07;;;;;;;5.80;3.10;;;;;;;19.85;58.97;99717.80;116998;1186;23558;-70
2022/09/12 00:54:57;;;;;;;4.50;3.30;;;;;;;19.83;59.14;99717.34;117308;1186;23650;-72
2022/09/12 00:57:27;;;;;;;3.40;2.70;;;;;;;19.81;59.06;99710.70;117061;1189;22229;-72
2022/09/12 01:00:16;;;;;;;3.90;2.80;;;;;;;19.80;59.03;99708.13;117153;1183;22932;-61
2022/09/12 01:03:07;;;;;;;4.50;3.40;;;;;;;19.79;59.00;99708.19;117115;1187;23545;-61
2022/09/12 01:05:36;;;;;;;5.00;2.80;;;;;;;19.79;59.13;99708.38;117033;1187;23479;-61
2022/09/12 01:08:04;;;;;;;6.90;3.00;;;;;;;19.77;59.06;99710.80;117124;1186;22958;-72
2022/09/12 01:10:32;;;;;;;5.30;2.80;;;;;;;19.75;59.15;99716.22;117083;1187;23572;-61
2022/09/12 01:12:59;;;;;;;4.10;2.90;;;;;;;19.73;58.92;99716.15;116999;1186;23025;-61
2022/09/12 01:15:26;;;;;;;3.10;2.70;;;;;;;19.72;59.07;99710.21;117100;1185;24237;-61
2022/09/12 01:18:03;;;;;;;3.80;2.90;;;;;;;19.71;58.92;99708.14;117268;1182;21860;-71
2022/09/12 01:20:37;;;;;;;4.00;2.70;;;;;;;19.70;59.06;99707.62;117083;1187;23290;-61
2022/09/12 01:23:34;;;;;;;3.00;2.70;;;;;;;19.69;58.97;99704.30;116970;1187;21865;-71
2022/09/12 01:26:13;;;;;;;3.50;3.00;;;;;;;19.67;59.00;99702.45;117131;1187;23378;-60
2022/09/12 01:28:49;;;;;;;3.50;3.00;;;;;;;19.66;59.05;99705.20;117015;1187;23454;-61
2022/09/12 01:31:34;;;;;;;5.30;3.00;;;;;;;19.64;59.03;99705.37;117354;1186;21868;-61
2022/09/12 01:34:20;;;;;;;3.90;2.90;;;;;;;19.66;58.86;99702.71;117088;1186;23809;-71
2022/09/12 01:36:55;;;;;;;3.40;2.80;;;;;;;19.63;58.95;99699.02;117307;1187;22927;-60
2022/09/12 01:39:31;;;;;;;3.50;2.70;;;;;;;19.59;58.88;99702.45;116969;1186;23566;-60
2022/09/12 01:42:05;;;;;;;4.70;2.60;;;;;;;19.60;58.89;99702.90;117146;1187;24208;-61
2022/09/12 01:45:03;;;;;;;3.90;3.00;;;;;;;19.59;58.87;99697.28;117317;1181;24178;-70
2022/09/12 01:47:39;;;;;;;4.70;3.10;;;;;;;19.57;58.96;99699.20;117251;1186;22629;-60
2022/09/12 01:50:17;;;;;;;3.10;2.50;;;;;;;19.55;58.95;99698.97;117056;1187;21847;-61
2022/09/12 01:52:49;;;;;;;4.30;2.80;;;;;;;19.52;58.85;99696.09;117028;1188;21861;-70
2022/09/12 01:55:22;;;;;;;3.20;2.60;;;;;;;19.53;58.89;99696.58;117011;1187;23583;-70
2022/09/12 01:57:56;;;;;;;3.20;2.40;;;;;;;19.52;59.04;99696.80;117079;1188;21837;-60
2022/09/12 02:00:23;;;;;;;3.50;2.70;;;;;;;19.51;58.91;99701.34;117278;1186;24290;-61
2022/09/12 02:03:01;;;;;;;3.50;3.00;;;;;;;19.48;58.81;99700.25;117026;1187;22941;-61
2022/09/12 02:06:02;;;;;;;4.20;2.50;;;;;;;19.46;58.82;99696.09;117319;1183;21913;-70
2022/09/12 02:08:38;;;;;;;5.50;2.70;;;;;;;19.45;58.90;99693.43;117025;1189;22267;-70
2022/09/12 02:11:07;;;;;;;3.00;2.40;;;;;;;19.43;59.04;99689.15;116930;1187;22644;-70
2022/09/12 02:13:37;;;;;;;2.80;2.20;;;;;;;19.40;58.88;99693.42;117138;1189;21877;-60
2022/09/12 02:16:11;;;;;;;4.00;2.70;;;;;;;19.38;58.98;99695.16;117293;1189;23629;-70
2022/09/12 02:18:40;;;;;;;3.00;2.60;;;;;;;19.35;58.96;99692.83;116983;1187;23080;-69
2022/09/12 02:21:07;;;;;;;4.60;3.20;;;;;;;19.34;58.97;99691.16;117239;1186;23449;-70
2022/09/12 02:23:37;;;;;;;3.50;2.80;;;;;;;19.32;58.87;99689.96;117122;1185;22924;-67
2022/09/12 02:26:18;;;;;;;3.30;2.70;;;;;;;19.30;58.84;99690.25;117076;1186;23576;-60
2022/09/12 02:28:46;;;;;;;3.70;3.00;;;;;;;19.29;58.86;99695.17;117168;1188;23599;-60
2022/09/12 02:31:33;;;;;;;3.80;2.70;;;;;;;19.26;58.83;99701.55;117154;1184;22812;-70
2022/09/12 02:34:09;;;;;;;4.60;3.00;;;;;;;19.24;58.83;99704.84;117648;1187;23622;-70
2022/09/12 02:36:45;;;;;;;4.70;2.60;;;;;;;19.22;58.94;99701.41;117032;1187;22608;-70
2022/09/12 02:39:12;;;;;;;6.30;2.90;;;;;;;19.20;58.90;99703.52;117140;1186;23702;-70
2022/09/12 02:41:39;;;;;;;5.60;3.10;;;;;;;19.17;59.03;99701.34;117081;1184;24172;-69
2022/09/12 02:44:06;;;;;;;4.20;3.00;;;;;;;19.16;58.96;99703.04;117100;1188;21867;-60
2022/09/12 02:46:43;;;;;;;6.00;3.20;;;;;;;19.14;58.97;99702.21;117152;1184;24165;-60
2022/09/12 02:49:09;;;;;;;5.30;3.40;;;;;;;19.14;58.89;99700.30;117177;1185;22928;-60
2022/09/12 02:51:36;;;;;;;5.40;3.40;;;;;;;19.12;58.82;99694.93;117123;1182;23682;-60
2022/09/12 02:54:06;;;;;;;4.30;3.40;;;;;;;19.10;58.96;99693.77;117032;1184;22940;-69
2022/09/12 02:56:33;;;;;;;4.90;3.30;;;;;;;19.07;58.92;99695.17;117014;1184;23621;-69
2022/09/12 02:59:02;;;;;;;5.50;3.40;;;;;;;19.05;58.95;99700.28;117167;1189;21957;-60
2022/09/12 03:01:44;;;;;;;3.80;2.90;;;;;;;19.02;58.84;99702.60;117268;1187;21891;-69
2022/09/12 03:04:31;;;;;;;5.40;3.20;;;;;;;18.96;58.97;99700.27;117193;1185;21868;-60
2022/09/12 03:07:24;;;;;;;5.60;3.30;;;;;;;18.90;59.07;99699.15;117235;1183;23556;-60
2022/09/12 03:09:54;;;;;;;4.20;3.20;;;;;;;18.84;59.06;99696.10;117236;1183;22927;-60
2022/09/12 03:12:28;;;;;;;5.00;3.00;;;;;;;18.80;59.09;99697.93;117268;1183;23594;-60
2022/09/12 03:15:12;;;;;;;5.10;3.20;;;;;;;18.75;59.08;99697.02;117289;1185;23478;-60
2022/09/12 03:18:04;;;;;;;7.20;3.90;;;;;;;18.73;59.11;99700.15;117092;1186;22269;-60
2022/09/12 03:20:40;;;;;;;5.70;3.40;;;;;;;18.71;59.09;99703.06;117258;1186;22243;-60
2022/09/12 03:23:18;;;;;;;5.10;3.50;;;;;;;18.70;59.09;99703.84;117214;1186;23479;-69
2022/09/12 03:25:48;;;;;;;6.40;4.00;;;;;;;18.67;59.14;99705.29;117081;1189;21866;-68
2022/09/12 03:28:16;;;;;;;8.20;3.90;;;;;;;18.64;59.17;99702.77;117110;1186;23621;-68
2022/09/12 03:30:45;;;;;;;7.10;3.60;;;;;;;18.63;59.08;99707.61;117142;1186;23559;-68
2022/09/12 03:33:15;;;;;;;6.50;3.70;;;;;;;18.61;59.07;99706.83;117106;1182;21866;-60
2022/09/12 03:35:42;;;;;;;6.80;3.80;;;;;;;18.58;59.13;99709.11;116998;1187;21879;-67
2022/09/12 03:38:09;;;;;;;4.70;3.70;;;;;;;18.53;59.07;99706.39;117086;1186;22840;-68
2022/09/12 03:40:36;;;;;;;8.90;4.00;;;;;;;18.49;59.05;99701.28;117135;1189;21849;-68
2022/09/12 03:43:04;;;;;;;5.40;4.30;;;;;;;18.47;59.22;99702.13;117084;1185;21857;-68
2022/09/12 03:45:31;;;;;;;5.60;4.00;;;;;;;18.46;59.16;99706.80;116917;1187;21865;-60
2022/09/12 03:47:58;;;;;;;5.60;3.70;;;;;;;18.45;59.04;99709.52;117003;1186;21899;-60
2022/09/12 03:50:25;;;;;;;6.70;4.30;;;;;;;18.43;59.19;99712.12;117066;1188;22930;-69
2022/09/12 03:52:52;;;;;;;14.80;5.00;;;;;;;18.39;59.32;99710.55;116954;1186;23558;-60
2022/09/12 03:55:19;;;;;;;8.60;4.40;;;;;;;18.41;59.28;99717.13;117094;1188;22922;-60
2022/09/12 03:57:47;;;;;;;5.70;3.90;;;;;;;18.43;59.07;99718.70;117082;1188;23535;-69
2022/09/12 04:00:14;;;;;;;5.90;4.00;;;;;;;18.42;58.94;99720.88;119111;1187;21811;-60
2022/09/12 04:02:46;;;;;;;5.90;3.80;;;;;;;18.37;58.96;99717.94;119115;1187;21795;-61
2022/09/12 04:05:13;;;;;;;5.90;4.00;;;;;;;18.30;59.03;99719.56;119201;1183;22273;-69
2022/09/12 04:07:40;;;;;;;7.00;4.20;;;;;;;18.25;59.08;99716.98;119236;1186;21837;-60
2022/09/12 04:10:07;;;;;;;8.80;4.10;;;;;;;18.23;59.11;99725.13;118671;1187;21826;-60
2022/09/12 04:12:36;;;;;;;7.00;3.70;;;;;;;18.21;59.10;99731.39;119216;1183;21817;-60
2022/09/12 04:15:04;;;;;;;5.00;3.70;;;;;;;18.19;59.09;99736.66;117358;1187;21856;-68
2022/09/12 04:17:30;;;;;;;5.10;3.90;;;;;;;18.17;59.17;99737.68;117248;1186;22624;-60
2022/09/12 04:19:58;;;;;;;5.40;3.90;;;;;;;18.18;59.29;99740.98;117094;1188;23447;-69
2022/09/12 04:22:25;;;;;;;4.90;4.40;;;;;;;18.16;59.27;99744.66;117161;1184;22924;-59
2022/09/12 04:24:53;;;;;;;6.20;4.20;;;;;;;18.15;59.25;99750.71;117228;1184;22925;-61
2022/09/12 04:27:19;;;;;;;5.20;4.20;;;;;;;18.10;59.45;99748.84;117329;1185;21899;-68
2022/09/12 04:29:47;;;;;;;6.00;4.30;;;;;;;18.17;59.36;99751.84;117235;1185;24191;-69
2022/09/12 04:32:14;;;;;;;6.10;5.10;;;;;;;18.16;59.46;99756.02;117255;1188;23541;-69
2022/09/12 04:34:41;;;;;;;8.30;4.80;;;;;;;18.16;59.64;99757.98;117282;1183;22924;-68
2022/09/12 04:37:10;;;;;;;8.70;4.70;;;;;;;18.19;59.69;99760.30;117262;1186;21976;-68
2022/09/12 04:39:38;;;;;;;6.00;4.70;;;;;;;18.22;59.60;99755.36;117289;1182;24174;-68
2022/09/12 04:42:05;;;;;;;5.40;4.50;;;;;;;18.24;59.72;99753.30;117374;1186;21856;-69
2022/09/12 04:44:31;;;;;;;8.50;4.40;;;;;;;18.26;59.92;99753.00;117230;1186;23465;-60
2022/09/12 04:46:59;;;;;;;6.90;4.30;;;;;;;18.29;59.91;99753.17;117245;1185;24175;-69
2022/09/12 04:49:26;;;;;;;9.20;4.50;;;;;;;18.35;59.84;99745.39;117263;1186;24147;-61
2022/09/12 04:51:54;;;;;;;6.30;4.40;;;;;;;18.51;60.02;99744.88;117301;1188;21903;-61
2022/09/12 04:54:21;;;;;;;6.80;5.00;;;;;;;18.66;60.09;99743.01;117385;1183;24152;-69
2022/09/12 04:56:48;;;;;;;5.00;4.50;;;;;;;18.75;60.24;99741.23;117339;1185;23449;-69
2022/09/12 04:59:19;;;;;;;5.60;4.70;;;;;;;18.80;60.13;99739.38;117266;1186;21863;-68
2022/09/12 05:01:47;;;;;;;9.00;5.50;;;;;;;18.82;60.26;99738.16;117297;1183;23448;-60
2022/09/12 05:04:14;;;;;;;6.30;5.30;;;;;;;18.88;60.16;99734.10;117256;1188;23750;-60
2022/09/12 05:06:41;;;;;;;7.50;5.30;;;;;;;18.98;60.27;99728.96;117265;1185;23552;-60
2022/09/12 05:09:10;;;;;;;7.80;6.40;;;;;;;19.06;60.35;99729.74;117187;1185;21864;-68
2022/09/12 05:11:39;;;;;;;10.10;6.00;;;;;;;19.12;60.41;99733.13;119250;1186;21752;-60
2022/09/12 05:14:27;;;;;;;10.50;6.30;;;;;;;19.17;60.72;99731.42;119234;1187;21763;-70
2022/09/12 05:16:58;;;;;;;9.00;5.40;;;;;;;19.23;60.58;99728.02;119007;1185;21861;-60
2022/09/12 05:19:26;;;;;;;8.70;5.30;;;;;;;19.36;60.42;99727.81;117110;1188;21876;-60
2022/09/12 05:21:55;;;;;;;8.20;5.40;;;;;;;19.47;60.20;99723.04;119330;1185;21843;-60
2022/09/12 05:24:22;;;;;;;7.00;5.10;;;;;;;19.61;59.93;99724.56;118481;1187;22949;-60
2022/09/12 05:26:49;;;;;;;5.70;4.80;;;;;;;19.73;59.80;99721.87;117178;1186;24164;-67
2022/09/12 05:29:15;;;;;;;5.50;4.70;;;;;;;19.83;59.75;99718.08;117166;1188;23479;-68
2022/09/12 05:31:43;;;;;;;7.80;5.00;;;;;;;19.93;59.77;99716.95;117165;1187;23452;-60
2022/09/12 05:34:10;;;;;;;5.50;4.40;;;;;;;20.07;59.52;99719.31;116960;1187;21899;-60
2022/09/12 05:36:37;;;;;;;5.60;4.40;;;;;;;20.15;59.57;99721.42;117110;1186;21878;-59
2022/09/12 05:39:05;;;;;;;6.10;3.90;;;;;;;20.26;59.55;99728.80;117243;1188;24303;-59
2022/09/12 05:41:32;;;;;;;5.40;3.70;;;;;;;20.38;59.32;99730.91;117120;1187;21890;-60
2022/09/12 05:44:02;;;;;;;9.80;4.50;;;;;;;20.49;59.20;99725.23;117070;1186;21858;-66
2022/09/12 05:46:34;;;;;;;4.90;3.20;;;;;;;20.63;58.63;99724.48;116940;1187;21848;-66
2022/09/12 05:49:02;;;;;;;5.70;3.10;;;;;;;20.72;58.49;99726.63;117168;1186;21850;-58
2022/09/12 05:51:32;;;;;;;6.10;3.60;;;;;;;20.81;58.30;99725.34;117112;1187;21859;-59
2022/09/12 05:54:00;;;;;;;4.80;2.60;;;;;;;20.80;58.31;99725.38;117278;1186;22917;-67
2022/09/12 05:56:32;;;;;;;5.70;3.00;;;;;;;20.85;58.30;99722.20;117161;1189;21858;-59
2022/09/12 05:59:04;;;;;;;3.20;2.70;;;;;;;20.96;57.99;99725.10;117310;1185;23582;-59
2022/09/12 06:01:33;;;;;;;3.00;2.40;;;;;;;21.12;57.47;99728.64;116928;1187;23556;-59
2022/09/12 06:04:02;;;;;;;5.10;2.90;;;;;;;21.23;57.04;99731.52;117153;1186;21853;-67
2022/09/12 06:06:30;;;;;;;3.20;2.70;;;;;;;21.33;56.95;99738.35;117121;1183;22640;-67
2022/09/12 06:08:59;;;;;;;5.20;2.90;;;;;;;21.34;57.01;99735.77;117103;1183;22926;-68
2022/09/12 06:11:27;;;;;;;3.70;2.60;;;;;;;21.39;57.09;99737.37;117176;1186;24197;-60
2022/09/12 06:13:56;;;;;;;4.20;2.40;;;;;;;21.48;57.10;99735.71;117099;1188;21852;-69
2022/09/12 06:16:26;;;;;;;4.40;2.40;;;;;;;21.58;56.99;99732.55;117042;1186;23645;-69
2022/09/12 06:18:55;;;;;;;4.20;2.50;;;;;;;21.72;57.02;99727.88;117054;1186;22930;-69
2022/09/12 06:21:22;;;;;;;3.70;2.50;;;;;;;21.85;57.17;99730.36;116996;1187;21871;-60
2022/09/12 06:23:50;;;;;;;5.80;3.70;;;;;;;21.98;57.24;99734.63;118643;1185;22928;-60
2022/09/12 06:26:20;;;;;;;5.70;3.60;;;;;;;22.13;57.27;99738.05;119123;1186;22334;-68
2022/09/12 06:28:47;;;;;;;9.00;6.20;;;;;;;22.30;57.04;99739.90;119130;1186;21867;-67
2022/09/12 06:31:19;;;;;;;10.20;7.20;;;;;;;22.44;56.40;99737.31;118193;1186;23581;-68
2022/09/12 06:33:48;;;;;;;8.20;5.20;;;;;;;22.59;56.37;99740.56;117986;1187;21859;-59
2022/09/12 06:36:17;;;;;;;11.60;7.90;;;;;;;22.78;56.16;99744.68;117178;1186;21867;-59
2022/09/12 06:38:47;;;;;;;19.00;12.90;;;;;;;23.00;56.19;99743.09;117276;1185;22934;-67
2022/09/12 06:41:15;;;;;;;6.50;4.90;;;;;;;23.25;55.54;99741.23;117104;1186;22925;-59
2022/09/12 06:43:43;;;;;;;4.00;2.60;;;;;;;23.46;55.04;99740.22;117218;1182;23134;-59
2022/09/12 06:46:11;;;;;;;4.30;2.10;;;;;;;23.62;54.56;99739.14;117084;1187;22906;-59
2022/09/12 06:48:39;;;;;;;3.00;1.90;;;;;;;23.74;53.86;99735.71;117355;1183;21863;-59
2022/09/12 06:51:12;;;;;;;3.60;1.50;;;;;;;23.83;53.68;99739.73;117187;1183;22969;-59
2022/09/12 06:53:40;;;;;;;2.30;1.60;;;;;;;23.85;53.53;99735.07;117239;1184;21861;-66
2022/09/12 06:56:10;;;;;;;2.90;1.60;;;;;;;23.84;53.54;99738.37;117119;1188;24164;-65
2022/09/12 06:58:38;;;;;;;2.50;1.10;;;;;;;23.93;53.74;99740.19;117067;1186;23479;-65
2022/09/12 07:01:09;;;;;;;2.50;1.20;;;;;;;24.06;53.41;99739.16;117244;1189;21902;-59
2022/09/12 07:03:37;;;;;;;3.00;1.70;;;;;;;24.15;53.21;99742.79;117130;1188;22937;-63
2022/09/12 07:06:11;;;;;;;3.10;1.60;;;;;;;24.25;53.43;99744.87;117081;1185;22622;-59
2022/09/12 07:08:44;;;;;;;3.90;1.40;;;;;;;24.27;52.43;99743.96;116986;1189;21856;-67
2022/09/12 07:11:19;;;;;;;2.50;1.20;;;;;;;24.24;52.62;99745.31;117147;1188;21851;-59
2022/09/12 07:13:49;;;;;;;3.80;1.60;;;;;;;24.19;52.05;99746.05;117084;1186;23579;-67
2022/09/12 07:16:16;;;;;;;1.50;1.10;;;;;;;24.17;52.07;99746.36;117237;1182;22503;-66
2022/09/12 07:18:56;;;;;;;1.90;1.10;;;;;;;24.11;52.52;99746.35;117255;1186;21998;-60
2022/09/12 07:21:25;;;;;;;13.80;2.70;;;;;;;24.03;51.66;99747.70;117231;1189;21919;-65
2022/09/12 07:23:54;;;;;;;14.00;1.50;;;;;;;24.09;52.18;99751.30;117125;1183;23557;-59
2022/09/12 07:26:21;;;;;;;3.90;1.50;;;;;;;24.30;52.68;99745.16;117332;1186;22449;-67
2022/09/12 07:28:54;;;;;;;7.00;1.70;;;;;;;24.60;52.61;99739.57;117162;1182;24338;-62
2022/09/12 07:31:39;;;;;;;;;;;;;;;24.98;52.30;99735.76;117211;1189;21842;-67
2022/09/12 07:34:06;;;;;;;8.60;1.60;;;;;;;25.25;51.35;99728.90;117068;1182;23683;-67
2022/09/12 07:36:33;;;;;;;6.20;1.60;;;;;;;25.50;51.64;99729.64;117185;1182;21858;-69
2022/09/12 07:39:00;;;;;;;3.10;1.10;;;;;;;25.62;50.67;99724.30;117168;1186;24176;-59
2022/09/12 07:41:29;;;;;;;3.00;1.50;;;;;;;25.72;50.21;99725.67;117213;1187;22930;-60
2022/09/12 07:43:58;;;;;;;3.40;1.50;;;;;;;25.86;49.15;99723.88;117141;1183;22927;-59
2022/09/12 07:46:32;;;;;;;2.90;1.30;;;;;;;26.04;49.63;99722.91;117270;1185;21889;-60
2022/09/12 07:49:00;;;;;;;7.30;1.80;;;;;;;26.19;49.84;99721.64;117078;1183;21872;-66
2022/09/12 07:51:27;;;;;;;7.00;1.50;;;;;;;26.34;49.95;99722.63;116915;1185;22714;-59
2022/09/12 07:53:55;;;;;;;4.30;1.60;;;;;;;26.46;49.75;99723.54;117163;1186;21859;-68
2022/09/12 07:56:24;;;;;;;2.90;1.50;;;;;;;26.55;49.22;99721.48;117151;1187;22931;-59
2022/09/12 07:58:57;;;;;;;5.60;3.20;;;;;;;26.64;48.22;99719.77;117178;1187;22917;-60
2022/09/12 08:01:25;;;;;;;14.20;8.70;;;;;;;26.68;47.82;99721.55;117188;1182;21915;-62
2022/09/12 08:03:54;;;;;;;18.50;12.90;;;;;;;26.75;48.20;99720.39;117144;1186;22917;-74
2022/09/12 08:06:24;;;;;;;6.10;4.10;;;;;;;26.88;48.12;99722.54;117263;1187;23005;-74
2022/09/12 08:08:52;;;;;;;3.50;2.50;;;;;;;26.96;47.26;99720.11;117101;1188;21861;-60
2022/09/12 08:11:21;;;;;;;4.30;1.80;;;;;;;27.03;48.00;99717.20;117020;1189;22919;-61
2022/09/12 08:13:50;;;;;;;2.30;1.30;;;;;;;27.12;46.91;99715.31;117222;1186;24205;-69
2022/09/12 08:16:24;;;;;;;3.80;1.20;;;;;;;27.12;45.84;99711.98;117054;1187;21915;-60
2022/09/12 08:18:52;;;;;;;3.30;1.30;;;;;;;27.14;46.28;99710.56;117187;1185;23531;-70
2022/09/12 08:21:21;;;;;;;2.90;1.70;;;;;;;27.21;46.60;99710.29;117180;1188;23570;-60
2022/09/12 08:24:14;;;;;;;3.20;1.10;;;;;;;27.20;46.08;99716.02;116882;1186;21862;-61
2022/09/12 08:26:42;;;;;;;4.00;1.50;;;;;;;27.26;47.33;99718.52;117031;1186;22927;-61
2022/09/12 08:29:09;;;;;;;14.70;1.90;;;;;;;27.49;47.80;99716.93;117207;1186;21855;-58
2022/09/12 08:31:37;;;;;;;5.40;1.60;;;;;;;27.73;47.53;99716.64;117225;1186;23455;-60
2022/09/12 08:34:07;;;;;;;5.30;1.40;;;;;;;27.90;47.19;99715.36;117204;1189;21867;-60
2022/09/12 08:36:34;;;;;;;;;;;;;;;28.05;46.96;99715.05;117160;1186;22791;-59
2022/09/12 08:39:04;;;;;;;3.10;1.40;;;;;;;28.12;44.16;99714.27;117173;1187;22837;-72
2022/09/12 08:41:48;;;;;;;3.90;1.10;;;;;;;28.09;44.60;99710.70;117207;1186;23091;-59
2022/09/12 08:44:52;;;;;;;6.20;1.30;;;;;;;28.17;44.33;99710.87;117058;1187;22921;-69
2022/09/12 08:47:33;;;;;;;4.00;1.40;;;;;;;28.27;45.03;99707.00;116891;1186;22844;-61
2022/09/12 08:50:05;;;;;;;2.60;1.20;;;;;;;28.37;43.87;99706.56;119113;1185;21769;-70
2022/09/12 08:52:36;;;;;;;1.70;1.00;;;;;;;28.34;43.87;99709.21;118259;1186;24164;-62
2022/09/12 08:55:05;;;;;;;1.30;1.00;;;;;;;28.37;43.87;99704.40;118736;1186;21845;-60
2022/09/12 08:57:32;;;;;;;2.50;1.40;;;;;;;28.44;43.10;99704.64;119406;1186;21798;-61
2022/09/12 08:59:59;;;;;;;1.60;1.30;;;;;;;28.46;42.49;99703.95;119042;1186;21862;-70
2022/09/12 09:02:35;;;;;;;2.70;1.50;;;;;;;28.53;43.08;99704.09;117180;1182;22961;-69
2022/09/12 09:05:11;;;;;;;3.40;1.70;;;;;;;28.65;43.30;99706.45;117250;1189;22900;-60
2022/09/12 09:07:53;;;;;;;2.00;1.50;;;;;;;28.64;41.75;99707.54;116976;1188;21858;-68
2022/09/12 09:10:45;;;;;;;2.90;1.70;;;;;;;28.60;43.14;99706.98;117098;1186;23457;-68
2022/09/12 09:16:11;;;;;;;8.00;1.50;;;;;;;28.92;43.55;99706.11;117018;1189;22112;-69
2022/09/12 09:18:39;;;;;;;2.90;1.60;;;;;;;29.11;43.50;99709.97;116911;1189;21917;-61
2022/09/12 09:21:50;;;;;;;1.90;1.30;;;;;;;29.35;43.52;99710.62;117069;1186;24307;-60
2022/09/12 09:24:20;;;;;;;3.00;1.60;;;;;;;29.68;43.94;99710.73;116859;1189;22923;-61
2022/09/12 09:26:59;;;;;;;2.60;1.60;;;;;;;29.92;43.97;99708.41;117181;1186;21868;-60
2022/09/12 09:29:41;;;;;;;3.20;2.00;;;;;;;30.12;43.80;99706.33;117190;1189;22041;-60
2022/09/12 09:32:16;;;;;;;3.50;1.60;;;;;;;30.32;43.31;99708.98;116921;1188;23009;-60
2022/09/12 09:34:43;;;;;;;4.30;2.00;;;;;;;30.27;41.84;99707.27;117114;1186;21900;-60
2022/09/12 09:37:41;;;;;;;5.70;2.50;;;;;;;30.12;42.17;99712.33;117137;1188;22811;-70
2022/09/12 09:40:26;;;;;;;7.40;3.30;;;;;;;30.19;42.99;99713.23;116862;1186;22654;-69
2022/09/12 09:43:02;;;;;;;9.30;2.80;;;;;;;30.21;42.61;99706.64;117251;1186;21844;-60
2022/09/12 09:45:29;;;;;;;5.20;2.40;;;;;;;30.00;42.62;99709.44;117229;1182;23467;-60
2022/09/12 09:48:03;;;;;;;6.30;3.00;;;;;;;29.67;42.18;99717.14;117014;1188;23683;-69
2022/09/12 09:50:31;;;;;;;6.50;2.60;;;;;;;29.26;42.13;99720.73;117183;1186;23490;-68
2022/09/12 09:52:59;;;;;;;3.50;2.20;;;;;;;28.76;41.53;99720.98;116984;1187;22982;-60
2022/09/12 09:55:29;;;;;;;3.60;1.80;;;;;;;28.47;43.16;99720.77;117182;1188;23474;-68
2022/09/12 09:57:57;;;;;;;3.70;2.00;;;;;;;28.40;41.99;99720.59;116866;1188;21882;-60
2022/09/12 10:00:32;;;;;;;5.90;2.30;;;;;;;28.22;41.35;99717.97;117143;1185;23570;-60
2022/09/12 10:03:08;;;;;;;3.00;2.30;;;;;;;28.13;42.90;99711.98;117400;1186;22636;-61
2022/09/12 10:05:53;;;;;;;5.50;2.30;;;;;;;28.33;42.44;99709.31;117107;1186;22869;-60
2022/09/12 10:08:25;;;;;;;7.30;2.90;;;;;;;28.50;42.53;99718.10;116967;1186;21848;-70
2022/09/12 10:11:04;;;;;;;17.50;4.50;;;;;;;28.51;42.94;99722.71;117207;1186;23560;-70
2022/09/12 10:13:51;;;;;;;43.60;6.50;;;;;;;28.49;42.23;99721.60;117147;1187;21858;-69
2022/09/12 10:16:31;;;;;;;13.90;3.40;;;;;;;28.25;41.39;99721.81;117177;1186;21864;-69
2022/09/12 10:19:01;;;;;;;10.40;3.10;;;;;;;27.83;42.00;99724.20;117106;1186;21862;-70
2022/09/12 10:21:46;;;;;;;6.60;2.50;;;;;;;27.59;42.52;99727.57;117117;1182;23695;-69
2022/09/12 10:24:21;;;;;;;10.90;2.40;;;;;;;27.46;41.77;99727.11;117027;1186;21899;-68
2022/09/12 10:26:55;;;;;;;12.30;2.50;;;;;;;27.26;42.01;99726.44;117101;1183;23107;-70
2022/09/12 10:29:31;;;;;;;25.20;4.70;;;;;;;27.27;43.00;99729.18;116913;1187;22959;-70
2022/09/12 10:32:05;;;;;;;6.50;2.30;;;;;;;27.37;42.87;99730.61;117238;1183;21944;-70
2022/09/12 10:34:45;;;;;;;2.80;1.60;;;;;;;27.32;41.90;99734.71;117247;1186;21861;-69
2022/09/12 10:37:18;;;;;;;3.90;1.60;;;;;;;27.14;41.72;99736.73;117259;1188;21854;-70
2022/09/12 10:39:52;;;;;;;3.90;1.80;;;;;;;27.15;42.69;99733.21;117143;1186;21861;-69
2022/09/12 10:42:41;;;;;;;4.30;1.30;;;;;;;27.32;42.16;99733.77;117119;1187;21888;-70
2022/09/12 10:45:37;;;;;;;25.60;3.80;;;;;;;27.58;41.51;99730.09;117224;1187;22873;-70
2022/09/12 10:48:25;;;;;;;21.10;2.90;;;;;;;27.86;41.97;99734.39;117098;1187;21857;-61
2022/09/12 10:50:52;;;;;;;10.30;2.20;;;;;;;28.02;41.27;99739.86;117075;1186;22837;-60
2022/09/12 10:53:21;;;;;;;16.90;2.20;;;;;;;27.92;40.39;99739.41;117037;1185;22635;-61
2022/09/12 10:56:01;;;;;;;365.80;37.10;;;;;;;27.81;40.85;99743.45;117323;1185;22942;-59
2022/09/12 10:58:52;;;;;;;36.00;5.30;;;;;;;27.69;40.85;99746.41;116949;1186;21870;-59
2022/09/12 11:01:50;;;;;;;16.70;2.90;;;;;;;27.50;41.30;99748.39;116943;1187;22847;-67
2022/09/12 11:04:40;;;;;;;3.30;1.50;;;;;;;27.33;41.20;99749.73;116789;1187;21873;-61
2022/09/12 11:07:26;;;;;;;3.20;1.70;;;;;;;27.08;40.67;99753.21;117009;1183;24188;-60
2022/09/12 11:10:12;;;;;;;2.00;1.20;;;;;;;26.84;41.44;99755.40;117009;1188;21857;-59
2022/09/12 11:12:55;;;;;;;4.10;1.40;;;;;;;26.75;41.15;99759.50;117159;1182;21869;-59
2022/09/12 11:15:51;;;;;;;9.10;1.70;;;;;;;26.72;41.43;99757.34;117059;1187;22701;-70
2022/09/12 11:18:41;;;;;;;3.00;1.20;;;;;;;26.84;41.37;99752.20;117200;1187;23094;-59
2022/09/12 11:21:33;;;;;;;2.60;1.20;;;;;;;26.93;40.71;99749.60;117038;1181;21871;-59
2022/09/12 11:24:04;;;;;;;3.20;1.20;;;;;;;26.99;40.96;99746.48;116975;1186;23621;-69
2022/09/12 11:27:09;;;;;;;3.70;1.10;;;;;;;26.96;39.99;99748.18;117262;1182;22950;-69
2022/09/12 11:29:52;;;;;;;2.10;0.80;;;;;;;26.81;40.08;99749.02;116998;1186;23147;-68
2022/09/12 11:32:47;;;;;;;4.70;2.30;;;;;;;26.62;40.41;99749.77;116871;1187;23811;-69
2022/09/12 11:35:28;;;;;;;3.80;2.00;;;;;;;26.56;41.15;99755.91;117083;1187;23458;-70
2022/09/12 11:38:30;;;;;;;3.30;2.10;;;;;;;26.70;41.68;99753.38;117021;1186;21864;-70
2022/09/12 11:41:25;;;;;;;3.50;1.40;;;;;;;26.83;40.76;99753.39;117047;1186;23906;-70
2022/09/12 11:44:04;;;;;;;1.50;1.30;;;;;;;26.77;40.33;99754.57;117105;1186;22948;-69
2022/09/12 11:46:36;;;;;;;3.80;1.30;;;;;;;26.65;40.79;99757.08;116817;1188;24178;-60
2022/09/12 11:49:12;;;;;;;3.20;1.10;;;;;;;26.59;40.78;99757.48;117015;1187;21868;-60
2022/09/12 11:51:57;;;;;;;4.70;1.60;;;;;;;26.48;40.83;99762.95;116934;1186;24784;-60
2022/09/12 11:54:36;;;;;;;2.50;1.10;;;;;;;26.30;40.79;99763.08;116974;1187;22948;-61
2022/09/12 11:57:03;;;;;;;2.30;1.30;;;;;;;26.08;39.77;99763.52;117116;1185;23573;-70